createdAt,value
2019-05-30T00:01:37.573Z,6.80
2019-05-30T00:04:24.025Z,6.70
2019-05-30T00:07:11.384Z,6.50
2019-05-30T00:09:58.416Z,6.50
2019-05-30T00:12:45.016Z,6.60
2019-05-30T00:15:31.595Z,6.50
2019-05-30T00:18:18.083Z,6.50
2019-05-30T00:21:05.100Z,6.40
2019-05-30T00:23:51.677Z,6.40
2019-05-30T00:26:38.361Z,6.40
2019-05-30T00:29:24.828Z,6.40
2019-05-30T00:32:11.215Z,6.40
2019-05-30T00:34:57.923Z,6.30
2019-05-30T00:37:44.410Z,6.20
2019-05-30T00:40:31.147Z,6.30
2019-05-30T00:43:17.781Z,6.20
2019-05-30T00:46:04.225Z,5.90
2019-05-30T00:48:51.258Z,6.00
2019-05-30T00:51:37.811Z,6.10
2019-05-30T00:54:24.429Z,6.10
2019-05-30T00:57:10.666Z,6.10
2019-05-30T00:59:57.191Z,6.10
2019-05-30T01:02:43.824Z,6.00
2019-05-30T01:05:30.196Z,5.90
2019-05-30T01:08:16.953Z,6.00
2019-05-30T01:11:03.580Z,6.00
2019-05-30T01:13:49.860Z,5.90
2019-05-30T01:16:36.968Z,5.80
2019-05-30T01:19:23.515Z,5.60
2019-05-30T01:22:10.174Z,5.60
2019-05-30T01:24:57.147Z,5.60
2019-05-30T01:27:43.882Z,5.60
2019-05-30T01:30:30.353Z,5.50
2019-05-30T01:33:17.257Z,5.40
2019-05-30T01:36:03.870Z,5.50
2019-05-30T01:38:50.209Z,5.40
2019-05-30T01:41:37.392Z,5.50
2019-05-30T01:44:23.683Z,5.50
2019-05-30T01:47:10.349Z,5.50
2019-05-30T01:49:58.276Z,5.60
2019-05-30T01:52:45.091Z,5.60
2019-05-30T01:55:31.590Z,5.50
2019-05-30T01:58:18.329Z,5.50
2019-05-30T02:01:21.622Z,5.50
2019-05-30T02:03:52.636Z,5.40
2019-05-30T02:06:39.380Z,5.20
2019-05-30T02:09:26.176Z,5.10
2019-05-30T02:12:12.769Z,5.00
2019-05-30T02:14:59.418Z,5.10
2019-05-30T02:17:46.011Z,5.20
2019-05-30T02:20:32.754Z,5.20
2019-05-30T02:23:19.146Z,5.30
2019-05-30T02:26:06.318Z,5.30
2019-05-30T02:28:52.582Z,5.20
2019-05-30T02:31:39.918Z,4.90
2019-05-30T02:34:26.630Z,4.70
2019-05-30T02:37:13.000Z,4.70
2019-05-30T02:40:02.904Z,4.80
2019-05-30T02:42:48.107Z,4.90
2019-05-30T02:45:34.777Z,5.00
2019-05-30T02:48:21.494Z,5.00
2019-05-30T02:51:10.077Z,4.80
2019-05-30T02:53:56.392Z,4.80
2019-05-30T02:56:42.729Z,4.80
2019-05-30T02:59:29.489Z,4.80
2019-05-30T03:02:17.659Z,4.80
2019-05-30T03:05:06.810Z,4.90
2019-05-30T03:07:53.419Z,4.90
2019-05-30T03:10:41.030Z,4.90
2019-05-30T03:13:27.873Z,4.90
2019-05-30T03:16:14.501Z,4.90
2019-05-30T03:19:01.885Z,4.80
2019-05-30T03:21:48.523Z,4.70
2019-05-30T03:24:35.248Z,4.70
2019-05-30T03:27:22.058Z,4.70
2019-05-30T03:30:18.212Z,4.70
2019-05-30T03:33:07.372Z,4.70
2019-05-30T03:35:45.368Z,4.80
2019-05-30T03:38:32.310Z,4.60
2019-05-30T03:41:18.956Z,4.70
2019-05-30T03:44:06.047Z,4.70
2019-05-30T03:46:54.910Z,4.80
2019-05-30T03:49:42.694Z,4.70
2019-05-30T03:52:30.379Z,4.70
2019-05-30T03:55:18.697Z,4.70
2019-05-30T03:58:10.072Z,4.70
2019-05-30T04:01:08.079Z,4.80
2019-05-30T04:03:56.320Z,4.80
2019-05-30T04:06:47.558Z,4.90
2019-05-30T04:09:35.808Z,4.90
2019-05-30T04:12:27.281Z,5.00
2019-05-30T04:15:17.160Z,5.00
2019-05-30T04:18:03.642Z,4.90
2019-05-30T04:20:50.111Z,4.80
2019-05-30T04:23:55.985Z,4.80
2019-05-30T04:26:42.985Z,5.00
2019-05-30T04:29:29.602Z,5.10
2019-05-30T04:32:16.599Z,5.20
2019-05-30T04:35:03.098Z,5.40
2019-05-30T04:37:49.437Z,5.50
2019-05-30T04:40:35.897Z,5.60
2019-05-30T04:43:22.549Z,5.70
2019-05-30T04:46:10.386Z,5.80
2019-05-30T04:48:57.188Z,5.90
2019-05-30T04:51:43.411Z,6.10
2019-05-30T04:54:29.876Z,6.20
2019-05-30T04:57:16.922Z,6.30
2019-05-30T05:00:06.909Z,6.40
2019-05-30T05:02:53.260Z,6.40
2019-05-30T05:05:39.626Z,6.40
2019-05-30T05:08:25.997Z,6.50
2019-05-30T05:11:16.338Z,6.60
2019-05-30T05:14:00.799Z,6.70
2019-05-30T05:16:47.061Z,6.80
2019-05-30T05:19:33.705Z,6.90
2019-05-30T05:22:21.156Z,7.00
2019-05-30T05:25:07.501Z,7.10
2019-05-30T05:27:54.082Z,7.20
2019-05-30T05:30:40.553Z,7.30
2019-05-30T05:33:27.104Z,7.40
2019-05-30T05:36:14.874Z,7.50
2019-05-30T05:39:02.159Z,7.40
2019-05-30T05:41:48.723Z,7.50
2019-05-30T05:44:35.325Z,7.70
2019-05-30T05:47:22.805Z,7.80
2019-05-30T05:50:09.721Z,7.90
2019-05-30T05:52:56.144Z,8.10
2019-05-30T05:55:42.780Z,8.20
2019-05-30T05:58:29.428Z,8.30
2019-05-30T06:01:17.284Z,8.40
2019-05-30T06:04:13.208Z,8.50
2019-05-30T06:06:52.480Z,8.60
2019-05-30T06:09:38.982Z,8.80
2019-05-30T06:12:25.837Z,8.90
2019-05-30T06:15:12.264Z,9.10
2019-05-30T06:17:58.857Z,9.20
2019-05-30T06:20:45.554Z,9.30
2019-05-30T06:23:31.893Z,9.40
2019-05-30T06:26:19.822Z,9.60
2019-05-30T06:29:06.445Z,9.70
2019-05-30T06:31:53.061Z,9.80
2019-05-30T06:34:40.242Z,10.00
2019-05-30T06:37:27.325Z,10.10
2019-05-30T06:40:14.426Z,10.10
2019-05-30T06:43:01.020Z,10.30
2019-05-30T06:45:47.495Z,10.40
2019-05-30T06:48:34.164Z,10.50
2019-05-30T06:51:21.005Z,10.70
2019-05-30T06:54:07.646Z,10.90
2019-05-30T06:56:53.951Z,11.00
2019-05-30T06:59:40.161Z,11.10
2019-05-30T07:02:28.342Z,11.30
2019-05-30T07:05:15.676Z,11.50
2019-05-30T07:08:02.534Z,11.70
2019-05-30T07:10:48.984Z,11.80
2019-05-30T07:13:35.489Z,11.90
2019-05-30T07:16:23.289Z,11.90
2019-05-30T07:19:09.811Z,12.10
2019-05-30T07:21:56.871Z,12.50
2019-05-30T07:24:43.304Z,12.50
2019-05-30T07:27:30.029Z,12.60
2019-05-30T07:30:17.312Z,12.70
2019-05-30T07:33:03.852Z,12.70
2019-05-30T07:35:50.695Z,12.90
2019-05-30T07:38:37.346Z,13.10
2019-05-30T07:41:24.629Z,13.20
2019-05-30T07:44:11.154Z,13.40
2019-05-30T07:46:57.494Z,13.50
2019-05-30T07:49:43.800Z,13.50
2019-05-30T07:52:30.609Z,13.70
2019-05-30T07:55:17.350Z,13.70
2019-05-30T07:58:04.017Z,13.90
2019-05-30T08:00:50.784Z,14.00
2019-05-30T08:03:38.777Z,14.20
2019-05-30T08:06:25.631Z,14.30
2019-05-30T08:09:12.152Z,14.40
2019-05-30T08:11:59.034Z,14.20
2019-05-30T08:14:45.854Z,14.60
2019-05-30T08:17:33.681Z,14.60
2019-05-30T08:20:20.314Z,14.70
2019-05-30T08:23:09.786Z,14.70
2019-05-30T08:25:55.563Z,14.90
2019-05-30T08:28:42.760Z,14.90
2019-05-30T08:31:30.427Z,15.00
2019-05-30T08:34:16.837Z,15.00
2019-05-30T08:37:03.151Z,15.40
2019-05-30T08:39:49.833Z,15.70
2019-05-30T08:42:38.242Z,15.70
2019-05-30T08:45:24.679Z,16.00
2019-05-30T08:48:10.901Z,16.00
2019-05-30T08:50:57.395Z,16.10
2019-05-30T08:53:44.189Z,16.20
2019-05-30T08:56:30.766Z,16.30
2019-05-30T08:59:17.444Z,16.30
2019-05-30T09:02:03.946Z,16.40
2019-05-30T09:04:50.863Z,16.80
2019-05-30T09:07:38.266Z,17.00
2019-05-30T09:10:25.281Z,16.90
2019-05-30T09:13:11.721Z,16.50
2019-05-30T09:15:58.275Z,16.40
2019-05-30T09:18:45.284Z,17.00
2019-05-30T09:21:32.064Z,17.20
2019-05-30T09:24:18.779Z,17.70
2019-05-30T09:27:05.549Z,17.80
2019-05-30T09:29:51.666Z,18.00
2019-05-30T09:32:39.605Z,17.90
2019-05-30T09:35:26.496Z,18.00
2019-05-30T09:38:13.435Z,18.50
2019-05-30T09:41:00.451Z,18.80
2019-05-30T09:43:48.414Z,19.50
2019-05-30T09:46:36.066Z,20.60
2019-05-30T09:49:23.664Z,20.20
2019-05-30T09:52:11.427Z,22.60
2019-05-30T09:54:59.048Z,24.60
2019-05-30T09:57:47.608Z,25.20
2019-05-30T10:00:35.285Z,25.10
2019-05-30T10:03:22.573Z,25.50
2019-05-30T10:06:10.467Z,26.30
2019-05-30T10:08:58.546Z,24.50
2019-05-30T10:11:47.257Z,24.30
2019-05-30T10:14:35.302Z,22.90
2019-05-30T10:17:23.053Z,23.50
2019-05-30T10:20:11.530Z,26.80
2019-05-30T10:22:59.407Z,28.20
2019-05-30T10:25:47.884Z,28.80
2019-05-30T10:28:35.925Z,28.50
2019-05-30T10:31:23.404Z,29.00
2019-05-30T10:34:10.651Z,29.70
2019-05-30T10:36:58.013Z,28.80
2019-05-30T10:39:46.965Z,29.20
2019-05-30T10:42:34.729Z,30.00
2019-05-30T10:45:24.155Z,28.80
2019-05-30T10:48:11.698Z,29.50
2019-05-30T10:50:58.971Z,30.30
2019-05-30T10:53:47.408Z,30.50
2019-05-30T10:56:36.189Z,30.50
2019-05-30T10:59:23.585Z,31.50
2019-05-30T11:02:11.250Z,31.70
2019-05-30T11:04:59.029Z,31.70
2019-05-30T11:08:03.924Z,30.10
2019-05-30T11:10:46.357Z,31.50
2019-05-30T11:13:34.281Z,31.90
2019-05-30T11:16:21.938Z,32.30
2019-05-30T11:19:09.513Z,32.80
2019-05-30T11:21:58.190Z,32.40
2019-05-30T11:24:45.510Z,33.30
2019-05-30T11:27:33.218Z,32.20
2019-05-30T11:30:20.736Z,33.10
2019-05-30T11:33:08.277Z,32.60
2019-05-30T11:35:55.646Z,32.50
2019-05-30T11:38:43.322Z,31.50
2019-05-30T11:41:31.082Z,30.30
2019-05-30T11:44:18.521Z,31.80
2019-05-30T11:47:06.186Z,33.50
2019-05-30T11:49:53.842Z,34.50
2019-05-30T11:52:41.338Z,33.40
2019-05-30T11:55:29.368Z,34.00
2019-05-30T11:58:19.699Z,34.10
2019-05-30T12:01:06.515Z,34.60
2019-05-30T12:03:54.436Z,34.30
2019-05-30T12:06:42.461Z,34.70
2019-05-30T12:09:30.193Z,35.10
2019-05-30T12:12:18.270Z,34.70
2019-05-30T12:15:09.649Z,35.90
2019-05-30T12:17:57.552Z,35.70
2019-05-30T12:20:45.385Z,34.70
2019-05-30T12:23:32.928Z,34.90
2019-05-30T12:26:21.171Z,35.50
2019-05-30T12:29:09.178Z,36.30
2019-05-30T12:31:59.223Z,36.10
2019-05-30T12:34:46.654Z,36.70
2019-05-30T12:37:35.113Z,36.40
2019-05-30T12:40:24.311Z,35.60
2019-05-30T12:43:12.295Z,33.00
2019-05-30T12:46:01.277Z,32.10
2019-05-30T12:48:49.201Z,32.10
2019-05-30T12:51:37.197Z,30.70
2019-05-30T12:54:24.826Z,30.30
2019-05-30T12:57:12.972Z,31.10
2019-05-30T13:00:01.018Z,29.00
2019-05-30T13:02:49.121Z,27.00
2019-05-30T13:05:37.381Z,28.30
2019-05-30T13:08:26.849Z,29.70
2019-05-30T13:11:14.614Z,29.50
2019-05-30T13:14:02.866Z,30.60
2019-05-30T13:16:50.526Z,32.90
2019-05-30T13:19:38.552Z,33.80
2019-05-30T13:22:26.385Z,34.90
2019-05-30T13:25:17.287Z,33.50
2019-05-30T13:28:08.398Z,32.70
2019-05-30T13:30:56.097Z,33.80
2019-05-30T13:33:43.599Z,33.80
2019-05-30T13:36:31.471Z,33.80
2019-05-30T13:39:19.743Z,34.10
2019-05-30T13:42:08.125Z,33.10
2019-05-30T13:44:56.017Z,34.70
2019-05-30T13:47:43.819Z,35.60
2019-05-30T13:50:31.177Z,35.50
2019-05-30T13:53:18.801Z,35.10
2019-05-30T13:56:06.249Z,35.90
2019-05-30T13:58:54.038Z,35.90
2019-05-30T14:01:41.838Z,36.00
2019-05-30T14:04:30.158Z,36.50
2019-05-30T14:07:18.346Z,35.00
2019-05-30T14:10:08.285Z,34.00
2019-05-30T14:12:56.756Z,31.50
2019-05-30T14:15:44.514Z,29.00
2019-05-30T14:18:32.391Z,28.90
2019-05-30T14:21:19.709Z,26.90
2019-05-30T14:24:07.499Z,28.80
2019-05-30T14:26:55.421Z,32.00
2019-05-30T14:29:43.473Z,31.40
2019-05-30T14:32:31.460Z,32.60
2019-05-30T14:35:19.482Z,33.90
2019-05-30T14:38:07.195Z,30.70
2019-05-30T14:40:54.630Z,30.50
2019-05-30T14:43:42.209Z,31.20
2019-05-30T14:46:29.825Z,32.00
2019-05-30T14:49:17.564Z,32.80
2019-05-30T14:52:04.862Z,33.80
2019-05-30T14:54:52.516Z,35.40
2019-05-30T14:57:40.553Z,35.80
2019-05-30T15:00:28.249Z,34.50
2019-05-30T15:03:16.030Z,34.30
2019-05-30T15:06:05.841Z,34.00
2019-05-30T15:08:53.047Z,32.40
2019-05-30T15:11:40.722Z,32.00
2019-05-30T15:14:28.659Z,33.30
2019-05-30T15:17:16.637Z,34.00
2019-05-30T15:20:10.299Z,33.90
2019-05-30T15:22:57.839Z,33.20
2019-05-30T15:25:45.571Z,31.80
2019-05-30T15:28:33.251Z,30.50
2019-05-30T15:31:21.042Z,31.80
2019-05-30T15:34:08.735Z,32.80
2019-05-30T15:36:56.437Z,32.90
2019-05-30T15:39:43.726Z,32.10
2019-05-30T15:42:31.483Z,29.30
2019-05-30T15:45:19.626Z,27.80
2019-05-30T15:48:08.231Z,27.30
2019-05-30T15:50:56.318Z,27.50
2019-05-30T15:53:43.901Z,27.30
2019-05-30T15:56:31.832Z,27.30
2019-05-30T15:59:19.889Z,27.30
2019-05-30T16:02:07.908Z,27.20
2019-05-30T16:04:55.818Z,25.60
2019-05-30T16:07:43.667Z,25.80
2019-05-30T16:10:31.191Z,25.40
2019-05-30T16:13:19.477Z,25.80
2019-05-30T16:16:07.473Z,26.20
2019-05-30T16:18:55.053Z,26.20
2019-05-30T16:21:42.866Z,26.10
2019-05-30T16:24:31.406Z,26.40
2019-05-30T16:27:19.808Z,26.40
2019-05-30T16:30:09.437Z,26.30
2019-05-30T16:32:57.699Z,26.00
2019-05-30T16:35:45.181Z,25.60
2019-05-30T16:38:32.722Z,25.90
2019-05-30T16:41:20.493Z,26.00
2019-05-30T16:44:08.398Z,25.90
2019-05-30T16:46:55.395Z,25.60
2019-05-30T16:49:43.074Z,25.50
2019-05-30T16:52:31.410Z,25.40
2019-05-30T16:55:19.528Z,25.10
2019-05-30T16:58:07.245Z,24.70
2019-05-30T17:00:55.009Z,24.80
2019-05-30T17:03:43.202Z,24.60
2019-05-30T17:06:31.259Z,24.40
2019-05-30T17:09:21.570Z,24.40
2019-05-30T17:12:10.500Z,24.20
2019-05-30T17:15:03.727Z,24.10
2019-05-30T17:17:54.919Z,24.10
2019-05-30T17:20:42.961Z,24.00
2019-05-30T17:23:31.018Z,23.80
2019-05-30T17:26:19.158Z,23.60
2019-05-30T17:29:06.723Z,23.40
2019-05-30T17:31:54.241Z,23.50
2019-05-30T17:34:42.533Z,23.50
2019-05-30T17:37:29.773Z,23.40
2019-05-30T17:40:18.553Z,23.30
2019-05-30T17:43:06.240Z,23.30
2019-05-30T17:45:54.073Z,23.20
2019-05-30T17:48:41.694Z,22.90
2019-05-30T17:51:30.019Z,22.70
2019-05-30T17:54:17.968Z,22.80
2019-05-30T17:57:05.294Z,22.60
2019-05-30T17:59:52.903Z,22.70
2019-05-30T18:02:41.197Z,22.60
2019-05-30T18:05:28.912Z,22.50
2019-05-30T18:08:16.153Z,22.40
2019-05-30T18:11:03.703Z,22.40
2019-05-30T18:13:50.996Z,22.30
2019-05-30T18:16:38.568Z,22.20
2019-05-30T18:19:27.277Z,22.20
2019-05-30T18:22:14.904Z,22.10
2019-05-30T18:25:02.471Z,22.00
2019-05-30T18:27:50.555Z,21.90
2019-05-30T18:30:44.588Z,21.90
2019-05-30T18:33:32.626Z,21.80
2019-05-30T18:36:20.140Z,21.80
2019-05-30T18:39:08.780Z,21.70
2019-05-30T18:41:56.185Z,21.60
2019-05-30T18:44:45.511Z,21.50
2019-05-30T18:47:33.182Z,21.50
2019-05-30T18:50:20.732Z,21.40
2019-05-30T18:53:11.041Z,21.40
2019-05-30T18:55:58.321Z,21.40
2019-05-30T18:58:45.973Z,21.30
2019-05-30T19:01:33.813Z,21.30
2019-05-30T19:04:22.967Z,21.20
2019-05-30T19:07:11.073Z,21.00
2019-05-30T19:09:58.250Z,20.90
2019-05-30T19:12:45.754Z,20.80
2019-05-30T19:15:34.238Z,20.80
2019-05-30T19:18:22.043Z,20.60
2019-05-30T19:21:15.842Z,20.60
2019-05-30T19:24:03.846Z,20.40
2019-05-30T19:26:52.799Z,20.30
2019-05-30T19:29:40.310Z,20.20
2019-05-30T19:32:28.593Z,20.20
2019-05-30T19:35:17.405Z,20.20
2019-05-30T19:38:05.276Z,20.20
2019-05-30T19:40:52.957Z,20.10
2019-05-30T19:43:41.090Z,20.00
2019-05-30T19:46:29.953Z,20.00
2019-05-30T19:49:17.457Z,19.90
2019-05-30T19:52:05.089Z,19.90
2019-05-30T19:54:52.881Z,19.90
2019-05-30T19:57:41.000Z,19.80
2019-05-30T20:00:29.887Z,19.70
2019-05-30T20:03:17.555Z,19.50
2019-05-30T20:06:05.340Z,19.50
2019-05-30T20:08:55.802Z,19.50
2019-05-30T20:11:42.236Z,19.40
2019-05-30T20:14:35.074Z,19.40
2019-05-30T20:17:22.929Z,19.30
2019-05-30T20:20:11.494Z,19.30
2019-05-30T20:22:58.896Z,19.20
2019-05-30T20:25:46.795Z,19.20
2019-05-30T20:28:34.789Z,19.30
2019-05-30T20:31:22.275Z,19.20
2019-05-30T20:34:10.225Z,19.20
2019-05-30T20:36:57.805Z,19.20
2019-05-30T20:39:45.226Z,19.20
2019-05-30T20:42:32.801Z,19.00
2019-05-30T20:45:20.988Z,19.00
2019-05-30T20:48:08.541Z,19.00
2019-05-30T20:50:56.160Z,19.00
2019-05-30T20:53:43.395Z,18.90
2019-05-30T20:56:31.853Z,18.80
2019-05-30T20:59:19.810Z,18.70
2019-05-30T21:02:07.098Z,18.70
2019-05-30T21:04:54.541Z,18.70
2019-05-30T21:07:44.512Z,18.60
2019-05-30T21:10:33.324Z,18.60
2019-05-30T21:13:20.905Z,18.60
2019-05-30T21:16:10.367Z,18.50
2019-05-30T21:18:59.354Z,18.50
2019-05-30T21:21:46.987Z,18.50
2019-05-30T21:24:34.664Z,18.50
2019-05-30T21:27:22.473Z,18.50
2019-05-30T21:30:11.124Z,18.40
2019-05-30T21:32:59.084Z,18.40
2019-05-30T21:35:47.803Z,18.30
2019-05-30T21:38:35.951Z,18.30
2019-05-30T21:41:23.517Z,18.30
2019-05-30T21:44:11.077Z,18.30
2019-05-30T21:46:58.327Z,18.00
2019-05-30T21:49:47.017Z,18.00
2019-05-30T21:52:34.917Z,18.00
2019-05-30T21:55:22.929Z,18.00
2019-05-30T21:58:10.277Z,18.10
2019-05-30T22:01:18.094Z,18.00
2019-05-30T22:04:07.061Z,17.80
2019-05-30T22:06:54.787Z,17.80
2019-05-30T22:09:43.110Z,17.80
2019-05-30T22:12:30.472Z,17.90
2019-05-30T22:15:18.050Z,17.90
2019-05-30T22:18:05.777Z,18.00
2019-05-30T22:20:53.756Z,18.00
2019-05-30T22:23:42.166Z,17.90
2019-05-30T22:26:29.855Z,17.90
2019-05-30T22:29:17.728Z,17.90
2019-05-30T22:32:05.211Z,17.90
2019-05-30T22:34:53.101Z,17.90
2019-05-30T22:37:40.641Z,17.90
2019-05-30T22:40:28.509Z,17.90
2019-05-30T22:43:24.757Z,17.90
2019-05-30T22:46:05.743Z,17.60
2019-05-30T22:48:53.110Z,17.50
2019-05-30T22:51:40.321Z,17.50
2019-05-30T22:54:28.035Z,17.60
2019-05-30T22:57:15.744Z,17.70
2019-05-30T23:00:05.334Z,17.60
2019-05-30T23:02:54.028Z,17.60
2019-05-30T23:05:41.796Z,17.60
2019-05-30T23:08:28.916Z,17.50
2019-05-30T23:11:16.541Z,17.50
2019-05-30T23:14:04.715Z,17.40
2019-05-30T23:16:52.726Z,17.40
2019-05-30T23:19:40.677Z,17.40
2019-05-30T23:22:28.277Z,17.30
2019-05-30T23:25:16.280Z,17.30
2019-05-30T23:28:04.349Z,17.30
2019-05-30T23:30:52.068Z,17.30
2019-05-30T23:33:39.689Z,17.40
2019-05-30T23:36:27.243Z,17.40
2019-05-30T23:39:15.348Z,17.40
2019-05-30T23:42:02.991Z,17.40
2019-05-30T23:44:51.303Z,17.30
2019-05-30T23:47:38.584Z,17.30
2019-05-30T23:50:25.972Z,17.30
2019-05-30T23:53:13.285Z,17.30
2019-05-30T23:56:00.801Z,17.30
2019-05-30T23:58:48.407Z,17.30
